Details From EFOU - Oulu
To ESNQ - Kiruna
Flight Number -
Tags Generated
Created
Modified
Stats Distance 211 nm / 390 km
Max Altitude 0 ft / 0 m
Waypoints 2
Social Downloads 2
Likes 0
Share VATSIM

Download

Looking for another format? Having issues loading an existing format? Contact us
Advertisement - Login to hide

Notes

Generated

Route

EFOU ESNQ

ID Type Via Altitude Latitude Longitude Leg Dist Tot Dist Heading (true) Name
O EFOU APT - 0 ft / 0 m 64.93584˚ 25.33189˚ - 0 nm - -
O ESNQ APT - 0 ft / 0 m 67.81265˚ 20.32031˚ 210 nm 210 nm 327° / 323° -

Altitude Profile

Advertisement - Login to hide

Weather


0- 5 10 15 20 25 30 35+ Temperature / ° C

Clouds and Precipitation
Forecast for 2017-12-11 12:00 UTC. Updated 24 minutes ago

Ground ~20,000 ft ~40,000 ft Winds

EFOU

Details ICAO EFOU (OUL)
Name Oulu
Region Finland
Timezone Europe/Helsinki (UTC+2.0)
Stats Elevation 47 ft / 14 m (AMSL)
Location 64.930059° 25.354560°
Runways 1
Magnetic Variation 10.660° E

METAR

EFOU 111120Z AUTO 14008KT 9999 OVC047 M01/M02 Q1002

Decode

TAF

TAF EFOU 110824Z 1109/1209 14008KT 9999 BKN033

Decode

Departure Runways

ID Width Length Bearing (true) Bearing (mag) Surface Threshold Offset Overrun Length
12 197 ft / 60 m 8,180 ft / 2,493 m 121.01° 110.35° Asphalt 0 ft / 0 m 200 ft / 61 m
30 197 ft / 60 m 8,180 ft / 2,493 m 301.05° 290.39° Asphalt 0 ft / 0 m 200 ft / 61 m

ESNQ

Details ICAO ESNQ (KRN)
Name Kiruna
Region Sweden
Timezone Europe/Stockholm (UTC+1.0)
Stats Elevation 1,508 ft / 460 m (AMSL)
Location 67.821984° 20.336762°
Runways 1
Magnetic Variation 9.070° E

METAR

ESNQ 111120Z 00000KT 9999 -SN OVC007 M05/M05 Q0995

Decode

TAF

Not found

Destination Runways

ID Width Length Bearing (true) Bearing (mag) Surface Threshold Offset Overrun Length
03 148 ft / 45 m 8,183 ft / 2,494 m 33.63° 24.56° Asphalt 0 ft / 0 m 200 ft / 61 m
21 148 ft / 45 m 8,183 ft / 2,494 m 213.66° 204.59° Asphalt 0 ft / 0 m 200 ft / 61 m

Approach Navaids

Runway Type Ident Frequency Range Bearing (true) Bearing (mag) Slope Elevation
21 Localiser NQ 110.30 MHz 18 nm / 33 km 213.64° 204.57° - 1,508 ft / 460 m (AMSL)
21 Glidescope NQ 110.30 MHz 10 nm / 19 km 213.64° 204.57° 2.86° 1,508 ft / 460 m (AMSL)

Popular Alternatives